Portada
METAR-TAF:

METAR-TAF

Aeroports :

Almeria, Espanya

latitud: 36-51N, longitud: 002-23W, altitud: 15 m

Observació

L'informe es va fer fa 22 minuts, a les 09:00 UTC
Vent 15 kt del Est/Nord-Est, variant entre Nord/Nord-Est i Est
Temperatura 29°C
Humitat 52%
Pressió 1022 hPa
Visibilitat 10 km o més
Escasses núvols a una alçada de 1000 ft

METAR: LEAM 250900Z 06015KT 030V090 9999 FEW010 29/18 Q1022

Hora: 11:22 (09:22 UTC)

Pronòstic

L'informe es va fer fa 1 hora i 22 minuts, a les 08:00 UTC
Pronòstic vàlid del 25 a les 09 UTC al 26 a les 09 UTC
Vent 15 kt del Est/Nord-Est
Visibilitat 10 km o més
sense núvols per sota de 1500 mi sense presència de cumulonimbus.
Evolucionant progressivament
l' 25 a les 22 UTC al 26 a les 01 UTC
Vent 8 kt del Nord

TAF: LEAM 250800Z 2509/2609 07015KT CAVOK TX31/2513Z TN23/2606Z BECMG 2522/2601 01008KT

Observacions i pronòstics meteorològics de més de 4000 aeroports (METAR i TAF).

Les estacions disponibles són els punts grocs i vermells al mapa.

Posi el ratolí al punt desitjat per veure el nom de l'estació.

Feu clic per veure les observacions i els pronòstics meteorològics.

Per canviar el mapa: feu clic els botons verds amb una creu de color negre per apropar; al botó verd amb un guió per allunyar la imatge; o en les fletxes verdes per a mapes adjacents.


METAR-TAF: